createdAt,value
2019-05-22T00:00:43.964Z,0.00
2019-05-22T00:01:43.929Z,0.00
2019-05-22T00:02:43.910Z,0.00
2019-05-22T00:03:43.903Z,0.00
2019-05-22T00:04:43.913Z,0.00
2019-05-22T00:05:43.904Z,0.00
2019-05-22T00:06:43.865Z,0.00
2019-05-22T00:07:43.857Z,0.00
2019-05-22T00:08:43.847Z,0.00
2019-05-22T00:09:43.833Z,0.00
2019-05-22T00:10:43.849Z,0.00
2019-05-22T00:17:03.311Z,0.00
2019-05-22T00:17:37.548Z,0.00
2019-05-22T00:18:10.828Z,0.00
2019-05-22T00:18:50.864Z,0.00
2019-05-22T00:19:25.141Z,0.00
2019-05-22T00:20:07.175Z,0.00
2019-05-22T00:20:49.259Z,0.00
2019-05-22T00:21:31.604Z,0.00
2019-05-22T00:22:13.358Z,0.00
2019-05-22T00:22:53.952Z,0.00
2019-05-22T00:23:28.185Z,0.00
2019-05-22T00:24:02.441Z,0.00
2019-05-22T00:24:42.704Z,0.00
2019-05-22T00:25:16.962Z,0.00
2019-05-22T00:25:51.228Z,0.00
2019-05-22T00:26:25.480Z,0.00
2019-05-22T00:26:59.724Z,0.00
2019-05-22T00:27:42.524Z,0.00
2019-05-22T00:28:22.958Z,0.00
2019-05-22T00:29:03.227Z,0.00
2019-05-22T00:29:42.901Z,0.00
2019-05-22T00:30:17.170Z,0.00
2019-05-22T00:30:51.426Z,0.00
2019-05-22T00:31:25.678Z,0.00
2019-05-22T00:31:59.927Z,0.00
2019-05-22T00:32:34.182Z,0.00
2019-05-22T00:33:09.435Z,0.00
2019-05-22T00:33:48.683Z,0.00
2019-05-22T00:34:28.348Z,0.00
2019-05-22T00:35:02.598Z,0.00
2019-05-22T00:35:40.206Z,0.00
2019-05-22T00:36:48.662Z,0.00
2019-05-22T00:37:22.925Z,0.00
2019-05-22T00:37:57.184Z,0.00
2019-05-22T00:38:33.833Z,0.00
2019-05-22T00:39:08.077Z,0.00
2019-05-22T00:39:42.334Z,0.00
2019-05-22T00:40:16.575Z,0.00
2019-05-22T00:40:50.877Z,0.00
2019-05-22T00:41:25.123Z,0.00
2019-05-22T00:41:59.961Z,0.00
2019-05-22T00:42:34.201Z,0.00
2019-05-22T00:43:13.854Z,0.00
2019-05-22T00:43:42.722Z,0.00
2019-05-22T00:44:16.976Z,0.00
2019-05-22T00:44:51.229Z,0.00
2019-05-22T05:00:16.860Z,56.25
2019-05-22T05:00:54.100Z,56.25
2019-05-22T05:01:28.363Z,50.62
2019-05-22T05:24:42.845Z,67.50
2019-05-22T05:27:14.042Z,73.12
2019-05-22T05:28:19.496Z,78.75
2019-05-22T05:29:04.980Z,84.38
2019-05-22T05:29:45.159Z,78.75
2019-05-22T05:30:50.632Z,90.00
2019-05-22T05:31:59.889Z,78.75
2019-05-22T05:32:40.889Z,78.75
2019-05-22T05:33:15.157Z,78.75
2019-05-22T05:33:49.411Z,90.00
2019-05-22T05:34:27.259Z,95.62
2019-05-22T05:35:32.788Z,101.25
2019-05-22T05:36:38.290Z,95.62
2019-05-22T05:37:18.567Z,95.62
2019-05-22T05:38:03.939Z,106.88
2019-05-22T05:39:29.590Z,118.12
2019-05-22T05:40:35.112Z,106.88
2019-05-22T05:42:00.723Z,129.38
2019-05-22T05:43:26.370Z,123.75
2019-05-22T05:44:31.885Z,118.12
2019-05-22T05:45:57.539Z,129.38
2019-05-22T05:47:03.013Z,135.00
2019-05-22T05:48:28.712Z,146.25
2019-05-22T05:49:34.173Z,140.62
2019-05-22T05:50:59.805Z,140.62
2019-05-22T05:52:05.289Z,151.88
2019-05-22T05:53:30.950Z,140.62
2019-05-22T05:54:36.440Z,146.25
2019-05-22T05:56:02.110Z,123.75
2019-05-22T05:57:27.740Z,101.25
2019-05-22T05:58:33.243Z,101.25
2019-05-22T05:59:38.763Z,106.88
2019-05-22T06:00:19.942Z,101.25
2019-05-22T06:01:03.251Z,101.25
2019-05-22T06:02:09.906Z,101.25
2019-05-22T06:02:56.740Z,101.25
2019-05-22T06:03:35.535Z,106.88
2019-05-22T06:04:33.623Z,106.88
2019-05-22T06:05:01.166Z,106.88
2019-05-22T06:05:46.549Z,106.88
2019-05-22T06:06:26.804Z,112.50
2019-05-22T06:07:12.177Z,118.12
2019-05-22T06:08:17.690Z,129.38
2019-05-22T06:09:43.332Z,129.38
2019-05-22T06:10:48.838Z,129.38
2019-05-22T06:12:14.465Z,129.38
2019-05-22T06:13:40.108Z,140.62
2019-05-22T06:14:45.617Z,146.25
2019-05-22T06:16:11.272Z,157.50
2019-05-22T06:17:16.767Z,157.50
2019-05-22T06:18:42.402Z,163.12
2019-05-22T06:19:47.917Z,168.75
2019-05-22T06:21:13.571Z,163.12
2019-05-22T06:22:19.056Z,157.50
2019-05-22T06:23:44.685Z,163.12
2019-05-22T06:24:50.187Z,163.12
2019-05-22T06:26:15.846Z,157.50
2019-05-22T06:27:21.328Z,157.50
2019-05-22T06:28:47.000Z,157.50
2019-05-22T06:29:52.466Z,157.50
2019-05-22T06:31:18.121Z,157.50
2019-05-22T06:32:23.603Z,151.88
2019-05-22T06:33:49.244Z,151.88
2019-05-22T06:34:54.743Z,151.88
2019-05-22T06:36:20.408Z,174.38
2019-05-22T06:37:25.898Z,185.62
2019-05-22T06:38:51.490Z,174.38
2019-05-22T06:39:56.981Z,168.75
2019-05-22T06:41:22.631Z,151.88
2019-05-22T06:42:28.106Z,157.50
2019-05-22T06:43:53.741Z,168.75
2019-05-22T06:44:59.238Z,163.12
2019-05-22T06:46:24.896Z,168.75
2019-05-22T06:47:24.877Z,196.88
2019-05-22T06:48:56.021Z,213.75
2019-05-22T06:49:56.025Z,208.12
2019-05-22T06:50:56.049Z,213.75
2019-05-22T06:51:55.989Z,213.75
2019-05-22T06:53:08.858Z,202.50
2019-05-22T06:53:58.342Z,185.62
2019-05-22T06:55:03.867Z,185.62
2019-05-22T06:56:29.518Z,185.62
2019-05-22T06:57:35.031Z,185.62
2019-05-22T06:59:00.671Z,168.75
2019-05-22T07:00:15.192Z,168.75
2019-05-22T07:01:31.843Z,174.38
2019-05-22T07:02:31.806Z,180.00
2019-05-22T07:04:02.974Z,196.88
2019-05-22T07:05:02.972Z,213.75
2019-05-22T07:06:02.968Z,225.00
2019-05-22T07:07:03.461Z,241.88
2019-05-22T07:08:02.949Z,258.75
2019-05-22T07:09:02.915Z,264.38
2019-05-22T07:10:02.916Z,264.38
2019-05-22T07:11:02.917Z,264.38
2019-05-22T07:12:02.966Z,247.50
2019-05-22T07:13:02.871Z,236.25
2019-05-22T07:14:02.857Z,236.25
2019-05-22T07:15:02.861Z,230.62
2019-05-22T07:16:02.847Z,225.00
2019-05-22T07:17:02.828Z,225.00
2019-05-22T07:18:02.840Z,225.00
2019-05-22T07:19:02.806Z,225.00
2019-05-22T07:20:02.803Z,225.00
2019-05-22T07:21:02.782Z,225.00
2019-05-22T07:22:02.781Z,219.38
2019-05-22T07:23:02.782Z,213.75
2019-05-22T07:24:12.234Z,213.75
2019-05-22T07:25:12.216Z,219.38
2019-05-22T07:26:12.210Z,230.62
2019-05-22T07:27:12.186Z,236.25
2019-05-22T07:28:12.207Z,241.88
2019-05-22T07:29:12.169Z,241.88
2019-05-22T07:30:12.231Z,247.50
2019-05-22T07:31:13.372Z,247.50
2019-05-22T07:32:12.126Z,264.38
2019-05-22T07:33:12.145Z,275.62
2019-05-22T07:34:12.115Z,292.50
2019-05-22T07:35:12.104Z,320.62
2019-05-22T07:36:16.384Z,348.75
2019-05-22T07:37:12.076Z,354.38
2019-05-22T07:38:12.078Z,371.25
2019-05-22T07:39:12.047Z,371.25
2019-05-22T07:40:12.035Z,376.88
2019-05-22T07:41:12.029Z,376.88
2019-05-22T07:42:12.014Z,371.25
2019-05-22T07:43:12.041Z,388.12
2019-05-22T07:44:12.022Z,393.75
2019-05-22T07:45:11.975Z,405.00
2019-05-22T07:46:11.975Z,405.00
2019-05-22T07:47:11.957Z,410.62
2019-05-22T07:48:12.268Z,416.25
2019-05-22T07:49:11.931Z,416.25
2019-05-22T07:50:11.921Z,416.25
2019-05-22T07:51:11.903Z,433.12
2019-05-22T07:52:11.903Z,455.62
2019-05-22T07:53:11.928Z,478.12
2019-05-22T07:54:11.879Z,495.00
2019-05-22T07:55:11.859Z,506.25
2019-05-22T07:56:11.867Z,517.50
2019-05-22T07:57:11.838Z,523.12
2019-05-22T07:58:11.853Z,517.50
2019-05-22T07:59:11.816Z,528.75
2019-05-22T08:00:11.820Z,556.88
2019-05-22T08:01:11.804Z,579.38
2019-05-22T08:02:11.780Z,590.62
2019-05-22T08:03:11.797Z,607.50
2019-05-22T08:04:11.755Z,630.00
2019-05-22T08:05:11.745Z,646.88
2019-05-22T08:06:11.766Z,658.12
2019-05-22T08:07:11.771Z,663.75
2019-05-22T08:08:11.786Z,686.25
2019-05-22T08:09:11.698Z,691.88
2019-05-22T08:10:11.691Z,680.62
2019-05-22T08:11:11.769Z,680.62
2019-05-22T08:12:11.691Z,675.00
2019-05-22T08:13:11.682Z,686.25
2019-05-22T08:14:11.639Z,714.38
2019-05-22T08:15:11.626Z,736.88
2019-05-22T08:16:11.617Z,720.00
2019-05-22T08:17:11.660Z,708.75
2019-05-22T08:18:11.590Z,731.25
2019-05-22T08:19:11.607Z,736.88
2019-05-22T08:20:11.570Z,731.25
2019-05-22T08:21:11.555Z,708.75
2019-05-22T08:22:11.543Z,703.12
2019-05-22T08:23:11.533Z,697.50
2019-05-22T08:24:11.549Z,675.00
2019-05-22T08:25:11.511Z,652.50
2019-05-22T08:26:11.496Z,669.38
2019-05-22T08:27:11.485Z,630.00
2019-05-22T08:28:11.471Z,618.75
2019-05-22T08:29:11.481Z,613.12
2019-05-22T08:30:11.446Z,585.00
2019-05-22T08:31:11.433Z,585.00
2019-05-22T08:32:11.433Z,613.12
2019-05-22T08:33:11.416Z,607.50
2019-05-22T08:34:11.423Z,601.88
2019-05-22T08:35:11.389Z,573.75
2019-05-22T08:36:11.377Z,568.12
2019-05-22T08:37:11.362Z,568.12
2019-05-22T08:38:11.356Z,568.12
2019-05-22T08:39:11.360Z,568.12
2019-05-22T08:40:11.328Z,596.25
2019-05-22T08:41:11.319Z,613.12
2019-05-22T08:42:11.391Z,618.75
2019-05-22T08:43:11.293Z,646.88
2019-05-22T08:44:16.736Z,686.25
2019-05-22T08:45:12.267Z,725.62
2019-05-22T08:46:11.258Z,770.62
2019-05-22T08:47:11.264Z,821.25
2019-05-22T08:48:11.232Z,855.00
2019-05-22T08:49:11.244Z,860.62
2019-05-22T08:50:11.212Z,883.12
2019-05-22T08:51:11.198Z,866.25
2019-05-22T08:52:22.977Z,821.25
2019-05-22T08:53:12.182Z,798.75
2019-05-22T08:54:11.163Z,781.88
2019-05-22T08:55:11.180Z,781.88
2019-05-22T08:56:11.141Z,804.38
2019-05-22T08:57:11.126Z,798.75
2019-05-22T08:58:11.135Z,815.62
2019-05-22T08:59:19.585Z,905.62
2019-05-22T09:00:12.603Z,1113.75
2019-05-22T09:01:11.080Z,973.12
2019-05-22T09:02:11.070Z,1170.00
2019-05-22T09:03:11.058Z,3375.00
2019-05-22T09:04:11.061Z,973.12
2019-05-22T09:05:11.060Z,821.25
2019-05-22T09:06:11.445Z,697.50
2019-05-22T09:07:11.013Z,630.00
2019-05-22T09:08:10.997Z,613.12
2019-05-22T09:09:10.989Z,601.88
2019-05-22T09:10:10.997Z,635.62
2019-05-22T09:11:10.967Z,691.88
2019-05-22T09:12:10.949Z,832.50
2019-05-22T09:13:10.940Z,956.25
2019-05-22T09:14:10.933Z,967.50
2019-05-22T09:15:10.938Z,883.12
2019-05-22T09:16:10.911Z,866.25
2019-05-22T09:17:10.894Z,961.88
2019-05-22T09:18:10.882Z,1001.25
2019-05-22T09:19:11.017Z,1035.00
2019-05-22T09:20:10.976Z,1102.50
2019-05-22T09:21:10.850Z,1226.25
2019-05-22T09:22:10.887Z,1040.62
2019-05-22T09:23:10.839Z,1023.75
2019-05-22T09:24:10.811Z,787.50
2019-05-22T09:25:10.826Z,770.62
2019-05-22T09:26:10.786Z,815.62
2019-05-22T09:27:10.774Z,860.62
2019-05-22T09:28:10.770Z,945.00
2019-05-22T09:29:10.750Z,973.12
2019-05-22T09:30:10.775Z,866.25
2019-05-22T09:31:10.728Z,855.00
2019-05-22T09:32:10.714Z,888.75
2019-05-22T09:33:10.705Z,911.25
2019-05-22T09:34:10.729Z,826.88
2019-05-22T09:35:10.684Z,916.88
2019-05-22T09:36:10.669Z,1040.62
2019-05-22T09:37:10.658Z,1288.12
2019-05-22T09:38:10.643Z,1968.75
2019-05-22T09:39:10.658Z,2868.75
2019-05-22T09:40:10.623Z,2469.38
2019-05-22T09:41:10.611Z,5090.62
2019-05-22T09:42:10.602Z,1535.62
2019-05-22T09:43:10.591Z,1591.88
2019-05-22T09:44:10.572Z,2137.50
2019-05-22T09:45:10.582Z,1839.38
2019-05-22T09:46:10.552Z,1698.75
2019-05-22T09:47:10.540Z,2041.88
2019-05-22T09:48:10.527Z,2081.25
2019-05-22T09:49:10.520Z,2660.62
2019-05-22T09:50:10.522Z,5602.50
2019-05-22T09:51:10.496Z,2351.25
2019-05-22T09:52:10.487Z,5574.38
2019-05-22T09:53:10.469Z,1991.25
2019-05-22T09:54:10.460Z,3307.50
2019-05-22T09:55:10.472Z,1563.75
2019-05-22T09:56:10.442Z,1282.50
2019-05-22T09:57:10.421Z,1260.00
2019-05-22T09:58:10.412Z,1220.62
2019-05-22T09:59:10.401Z,1051.88
2019-05-22T10:00:10.409Z,984.38
2019-05-22T10:01:11.955Z,939.38
2019-05-22T10:02:10.371Z,916.88
2019-05-22T10:03:10.355Z,860.62
2019-05-22T10:04:10.345Z,961.88
2019-05-22T10:05:10.354Z,1288.12
2019-05-22T10:06:10.649Z,3898.12
2019-05-22T10:07:10.307Z,4252.50
2019-05-22T10:08:10.298Z,4426.88
2019-05-22T10:09:10.285Z,4921.88
2019-05-22T10:10:10.291Z,4803.75
2019-05-22T10:11:10.263Z,5107.50
2019-05-22T10:12:10.253Z,4989.38
2019-05-22T10:13:10.250Z,3386.25
2019-05-22T10:14:10.227Z,5056.88
2019-05-22T10:15:10.525Z,4280.62
2019-05-22T10:16:10.208Z,1822.50
2019-05-22T10:17:10.195Z,1406.25
2019-05-22T10:18:10.189Z,1355.62
2019-05-22T10:19:10.179Z,911.25
2019-05-22T10:20:10.361Z,1012.50
2019-05-22T10:21:10.153Z,4460.62
2019-05-22T10:22:10.142Z,4635.00
2019-05-22T10:23:15.299Z,4848.75
2019-05-22T10:24:11.128Z,4916.25
2019-05-22T10:25:15.781Z,5371.88
2019-05-22T10:26:11.094Z,2143.12
2019-05-22T10:27:10.090Z,5231.25
2019-05-22T10:28:10.081Z,5220.00
2019-05-22T10:29:10.062Z,1980.00
2019-05-22T10:30:10.070Z,1501.88
2019-05-22T10:31:11.046Z,1344.38
2019-05-22T10:32:10.027Z,1603.12
2019-05-22T10:33:10.024Z,3448.12
2019-05-22T10:34:10.011Z,1856.25
2019-05-22T10:35:10.014Z,3465.00
2019-05-22T10:36:09.986Z,5225.62
2019-05-22T10:37:09.978Z,4438.12
2019-05-22T10:38:09.966Z,3352.50
2019-05-22T10:39:09.949Z,4663.12
2019-05-22T10:40:09.960Z,4719.38
2019-05-22T10:41:09.928Z,5191.88
2019-05-22T10:42:09.915Z,4241.25
2019-05-22T10:43:09.912Z,5186.25
2019-05-22T10:44:09.903Z,4758.75
2019-05-22T10:45:09.901Z,2013.75
2019-05-22T10:46:09.946Z,1080.00
2019-05-22T10:47:09.865Z,973.12
2019-05-22T10:48:09.854Z,832.50
2019-05-22T10:49:09.849Z,742.50
2019-05-22T10:50:09.852Z,770.62
2019-05-22T10:51:09.829Z,1243.12
2019-05-22T10:52:09.809Z,4961.25
2019-05-22T10:53:09.794Z,4927.50
2019-05-22T10:54:09.792Z,5265.00
2019-05-22T10:55:09.792Z,4966.88
2019-05-22T10:56:10.070Z,3155.62
2019-05-22T10:57:09.753Z,4865.62
2019-05-22T10:58:09.749Z,4978.12
2019-05-22T10:59:09.734Z,4905.00
2019-05-22T11:00:09.764Z,4708.12
2019-05-22T11:01:09.707Z,4961.25
2019-05-22T11:02:09.696Z,1642.50
2019-05-22T11:03:09.689Z,4815.00
2019-05-22T11:04:09.692Z,4702.50
2019-05-22T11:05:09.675Z,4730.62
2019-05-22T11:06:09.684Z,4921.88
2019-05-22T11:07:09.644Z,4905.00
2019-05-22T11:08:09.630Z,4921.88
2019-05-22T11:09:09.621Z,5101.88
2019-05-22T11:10:09.609Z,5135.62
2019-05-22T11:11:09.623Z,5169.38
2019-05-22T11:12:09.589Z,4843.12
2019-05-22T11:13:09.576Z,1445.62
2019-05-22T11:14:09.769Z,5135.62
2019-05-22T11:15:09.560Z,1698.75
2019-05-22T11:16:09.592Z,5017.50
2019-05-22T11:17:09.533Z,5135.62
2019-05-22T11:18:09.531Z,5186.25
2019-05-22T11:19:09.588Z,5326.88
2019-05-22T11:20:09.502Z,5231.25
2019-05-22T11:21:09.510Z,3020.62
2019-05-22T11:22:09.479Z,4955.62
2019-05-22T11:23:09.469Z,5011.88
2019-05-22T11:24:09.460Z,4770.00
2019-05-22T11:25:09.451Z,4961.25
2019-05-22T11:26:09.460Z,2311.88
2019-05-22T11:27:09.427Z,2463.75
2019-05-22T11:28:09.416Z,3718.12
2019-05-22T11:29:09.405Z,4691.25
2019-05-22T11:30:09.394Z,5045.62
2019-05-22T11:31:09.408Z,5214.38
2019-05-22T11:32:09.375Z,1906.88
2019-05-22T11:33:09.424Z,2036.25
2019-05-22T11:34:09.351Z,4781.25
2019-05-22T11:35:09.349Z,1957.50
2019-05-22T11:36:09.351Z,5034.38
2019-05-22T11:37:09.319Z,4668.75
2019-05-22T11:38:09.309Z,4640.62
2019-05-22T11:39:09.308Z,4443.75
2019-05-22T11:40:09.309Z,4539.38
2019-05-22T11:41:09.276Z,4713.75
2019-05-22T11:42:09.265Z,4567.50
2019-05-22T11:43:09.256Z,4528.12
2019-05-22T11:44:09.319Z,3448.12
2019-05-22T11:45:09.251Z,2565.00
2019-05-22T11:46:09.224Z,1192.50
2019-05-22T11:47:09.213Z,4230.00
2019-05-22T11:48:09.205Z,4623.75
2019-05-22T11:49:09.209Z,4606.88
2019-05-22T11:50:09.202Z,4550.62
2019-05-22T11:51:09.168Z,4775.62
2019-05-22T11:52:09.156Z,4781.25
2019-05-22T11:53:09.149Z,4685.62
2019-05-22T11:54:10.056Z,4156.88
2019-05-22T11:55:09.159Z,4500.00
2019-05-22T11:56:09.116Z,3330.00
2019-05-22T11:57:09.103Z,4876.88
2019-05-22T11:58:09.092Z,4747.50
2019-05-22T11:59:09.082Z,4674.38
2019-05-22T12:00:09.471Z,4106.25
2019-05-22T12:01:09.063Z,2351.25
2019-05-22T12:02:09.050Z,3920.62
2019-05-22T12:03:09.039Z,1305.00
2019-05-22T12:04:09.034Z,1209.38
2019-05-22T12:05:09.036Z,1417.50
2019-05-22T12:06:09.006Z,1479.38
2019-05-22T12:07:08.996Z,4117.50
2019-05-22T12:08:08.988Z,4263.75
2019-05-22T12:09:08.974Z,3971.25
2019-05-22T12:10:08.983Z,4443.75
2019-05-22T12:11:08.958Z,4140.00
2019-05-22T12:12:08.942Z,4483.12
2019-05-22T12:13:08.935Z,3110.62
2019-05-22T12:14:08.931Z,2047.50
2019-05-22T12:15:08.929Z,1625.62
2019-05-22T12:16:08.905Z,1721.25
2019-05-22T12:17:08.888Z,4438.12
2019-05-22T12:18:08.878Z,1501.88
2019-05-22T12:19:08.877Z,4483.12
2019-05-22T12:20:08.874Z,4471.88
2019-05-22T12:21:08.845Z,4331.25
2019-05-22T12:22:08.833Z,4381.88
2019-05-22T12:23:08.823Z,1586.25
2019-05-22T12:24:25.949Z,2559.38
2019-05-22T12:25:09.816Z,3476.25
2019-05-22T12:26:08.798Z,2671.88
2019-05-22T12:27:08.780Z,1411.88
2019-05-22T12:28:08.767Z,4111.88
2019-05-22T12:29:08.757Z,3931.88
2019-05-22T12:30:08.788Z,1653.75
2019-05-22T12:31:08.735Z,1327.50
2019-05-22T12:32:08.726Z,1710.00
2019-05-22T12:33:13.155Z,1361.25
2019-05-22T12:34:09.701Z,1102.50
2019-05-22T12:35:08.709Z,933.75
2019-05-22T12:36:08.684Z,1012.50
2019-05-22T12:37:08.667Z,1147.50
2019-05-22T12:38:08.657Z,3043.12
2019-05-22T12:39:08.646Z,3780.00
2019-05-22T12:40:08.721Z,3982.50
2019-05-22T12:41:08.621Z,2986.88
2019-05-22T12:42:08.613Z,1445.62
2019-05-22T12:43:08.604Z,3290.62
2019-05-22T12:44:08.590Z,3324.38
2019-05-22T12:45:08.581Z,3667.50
2019-05-22T12:46:08.589Z,1530.00
2019-05-22T12:47:08.557Z,793.12
2019-05-22T12:48:08.544Z,725.62
2019-05-22T12:49:09.191Z,720.00
2019-05-22T12:50:08.524Z,804.38
2019-05-22T12:51:08.531Z,928.12
2019-05-22T12:52:08.501Z,2272.50
2019-05-22T12:53:08.493Z,3667.50
2019-05-22T12:54:08.495Z,2891.25
2019-05-22T12:55:08.469Z,1873.12
2019-05-22T12:56:08.477Z,3622.50
2019-05-22T12:57:08.452Z,1113.75
2019-05-22T12:58:08.437Z,1012.50
2019-05-22T12:59:08.423Z,1051.88
2019-05-22T13:00:08.415Z,1552.50
2019-05-22T13:01:08.437Z,1614.38
2019-05-22T13:02:08.390Z,2795.62
2019-05-22T13:03:08.377Z,3943.12
2019-05-22T13:04:08.366Z,1620.00
2019-05-22T13:05:08.368Z,2930.62
2019-05-22T13:06:08.363Z,1608.75
2019-05-22T13:07:08.336Z,3825.00
2019-05-22T13:08:08.321Z,3735.00
2019-05-22T13:09:08.308Z,3774.38
2019-05-22T13:10:08.312Z,3622.50
2019-05-22T13:11:08.307Z,1068.75
2019-05-22T13:12:08.276Z,900.00
2019-05-22T13:13:08.267Z,894.38
2019-05-22T13:14:08.254Z,894.38
2019-05-22T13:15:10.645Z,871.88
2019-05-22T13:16:08.251Z,877.50
2019-05-22T13:17:08.251Z,973.12
2019-05-22T13:18:08.268Z,1456.88
2019-05-22T13:19:08.202Z,1265.62
2019-05-22T13:20:08.192Z,1046.25
2019-05-22T13:21:08.193Z,990.00
2019-05-22T13:22:08.179Z,883.12
2019-05-22T13:23:08.152Z,832.50
2019-05-22T13:24:08.140Z,832.50
2019-05-22T13:25:08.130Z,995.62
2019-05-22T13:26:08.155Z,1108.12
2019-05-22T13:27:08.110Z,956.25
2019-05-22T13:28:08.121Z,826.88
2019-05-22T13:29:08.095Z,753.75
2019-05-22T13:30:08.238Z,703.12
2019-05-22T13:31:19.067Z,686.25
2019-05-22T13:32:08.052Z,646.88
2019-05-22T13:33:08.036Z,585.00
2019-05-22T13:34:08.030Z,551.25
2019-05-22T13:35:08.015Z,562.50
2019-05-22T13:36:08.028Z,613.12
2019-05-22T13:37:07.989Z,804.38
2019-05-22T13:38:07.981Z,2947.50
2019-05-22T13:39:07.964Z,3211.88
2019-05-22T13:40:24.629Z,3172.50
2019-05-22T13:41:08.963Z,1248.75
2019-05-22T13:42:07.931Z,3178.12
2019-05-22T13:43:07.920Z,3217.50
2019-05-22T13:44:07.908Z,3358.12
2019-05-22T13:45:07.903Z,3262.50
2019-05-22T13:46:07.904Z,3217.50
2019-05-22T13:47:07.873Z,3279.38
2019-05-22T13:48:07.871Z,2075.62
2019-05-22T13:49:07.857Z,3223.12
2019-05-22T13:50:07.838Z,1170.00
2019-05-22T13:51:07.860Z,3240.00
2019-05-22T13:52:07.815Z,922.50
2019-05-22T13:53:07.806Z,770.62
2019-05-22T13:54:07.797Z,708.75
2019-05-22T13:55:07.785Z,1316.25
2019-05-22T13:56:07.796Z,956.25
2019-05-22T13:57:07.762Z,3020.62
2019-05-22T13:58:07.747Z,2874.38
2019-05-22T13:59:07.738Z,2767.50
2019-05-22T14:00:09.441Z,2767.50
2019-05-22T14:01:07.733Z,2216.25
2019-05-22T14:02:07.703Z,883.12
2019-05-22T14:03:07.693Z,956.25
2019-05-22T14:04:07.691Z,1141.88
2019-05-22T14:05:07.676Z,2531.25
2019-05-22T14:06:07.676Z,855.00
2019-05-22T14:07:07.644Z,765.00
2019-05-22T14:08:07.635Z,646.88
2019-05-22T14:09:07.640Z,590.62
2019-05-22T14:10:07.610Z,573.75
2019-05-22T14:11:07.618Z,601.88
2019-05-22T14:12:07.586Z,691.88
2019-05-22T14:13:07.577Z,2621.25
2019-05-22T14:14:07.566Z,2711.25
2019-05-22T14:15:07.556Z,2756.25
2019-05-22T14:16:07.544Z,1029.38
2019-05-22T14:17:07.547Z,1136.25
2019-05-22T14:18:07.519Z,832.50
2019-05-22T14:19:07.506Z,731.25
2019-05-22T14:20:07.504Z,613.12
2019-05-22T14:21:07.487Z,540.00
2019-05-22T14:22:07.516Z,495.00
2019-05-22T14:23:07.465Z,489.38
2019-05-22T14:24:07.451Z,495.00
2019-05-22T14:25:07.439Z,517.50
2019-05-22T14:26:07.426Z,618.75
2019-05-22T14:27:07.435Z,1299.38
2019-05-22T14:28:07.405Z,2390.62
2019-05-22T14:29:07.393Z,2559.38
2019-05-22T14:30:07.381Z,2581.88
2019-05-22T14:31:07.367Z,2576.25
2019-05-22T14:32:07.377Z,2587.50
2019-05-22T14:33:07.351Z,2542.50
2019-05-22T14:34:07.335Z,2469.38
2019-05-22T14:35:07.324Z,2643.75
2019-05-22T14:36:07.312Z,2655.00
2019-05-22T14:37:07.328Z,2610.00
2019-05-22T14:38:07.288Z,2660.62
2019-05-22T14:39:07.277Z,2514.38
2019-05-22T14:40:07.280Z,675.00
2019-05-22T14:41:07.255Z,1361.25
2019-05-22T14:42:07.263Z,1665.00
2019-05-22T14:43:07.230Z,2525.62
2019-05-22T14:44:07.220Z,810.00
2019-05-22T14:45:07.211Z,2424.38
2019-05-22T14:46:07.195Z,2266.88
2019-05-22T14:47:14.628Z,2154.38
2019-05-22T14:48:08.173Z,2131.88
2019-05-22T14:49:07.160Z,2379.38
2019-05-22T14:50:07.149Z,781.88
2019-05-22T14:51:07.137Z,1496.25
2019-05-22T14:52:07.133Z,2356.88
2019-05-22T14:53:07.139Z,933.75
2019-05-22T14:54:07.105Z,708.75
2019-05-22T14:55:07.098Z,613.12
2019-05-22T14:56:10.730Z,590.62
2019-05-22T14:57:07.068Z,562.50
2019-05-22T14:58:07.107Z,551.25
2019-05-22T14:59:07.055Z,545.62
2019-05-22T15:00:07.034Z,534.38
2019-05-22T15:01:07.030Z,523.12
2019-05-22T15:02:07.021Z,534.38
2019-05-22T15:03:07.036Z,1215.00
2019-05-22T15:04:06.995Z,613.12
2019-05-22T15:05:06.979Z,528.75
2019-05-22T15:06:06.967Z,495.00
2019-05-22T15:07:06.957Z,483.75
2019-05-22T15:08:06.985Z,528.75
2019-05-22T15:09:06.936Z,579.38
2019-05-22T15:10:06.920Z,596.25
2019-05-22T15:11:06.906Z,590.62
2019-05-22T15:12:06.897Z,562.50
2019-05-22T15:13:06.884Z,517.50
2019-05-22T15:14:06.895Z,483.75
2019-05-22T15:15:06.869Z,466.88
2019-05-22T15:16:06.851Z,455.62
2019-05-22T15:17:06.842Z,523.12
2019-05-22T15:18:06.828Z,556.88
2019-05-22T15:19:06.840Z,545.62
2019-05-22T15:20:06.805Z,601.88
2019-05-22T15:21:06.796Z,686.25
2019-05-22T15:22:06.784Z,787.50
2019-05-22T15:23:06.772Z,781.88
2019-05-22T15:24:06.782Z,753.75
2019-05-22T15:25:06.747Z,630.00
2019-05-22T15:26:06.740Z,573.75
2019-05-22T15:27:06.724Z,843.75
2019-05-22T15:28:06.712Z,753.75
2019-05-22T15:29:06.721Z,815.62
2019-05-22T15:30:06.694Z,939.38
2019-05-22T15:31:06.678Z,832.50
2019-05-22T15:32:06.669Z,731.25
2019-05-22T15:33:06.658Z,703.12
2019-05-22T15:34:06.665Z,691.88
2019-05-22T15:35:06.634Z,675.00
2019-05-22T15:36:07.054Z,641.25
2019-05-22T15:37:06.611Z,613.12
2019-05-22T15:38:06.673Z,590.62
2019-05-22T15:39:06.609Z,579.38
2019-05-22T15:40:06.581Z,562.50
2019-05-22T15:41:06.562Z,613.12
2019-05-22T15:42:06.907Z,624.38
2019-05-22T15:43:06.537Z,663.75
2019-05-22T15:44:06.549Z,590.62
2019-05-22T15:45:06.514Z,686.25
2019-05-22T15:46:06.502Z,630.00
2019-05-22T15:47:06.493Z,607.50
2019-05-22T15:48:06.491Z,618.75
2019-05-22T15:49:06.487Z,601.88
2019-05-22T15:50:06.454Z,624.38
2019-05-22T15:51:06.444Z,607.50
